createdAt,value
2023-02-05T00:01:32.992Z,-0.61
2023-02-05T00:04:00.145Z,-0.70
2023-02-05T00:06:27.240Z,-0.72
2023-02-05T00:08:54.092Z,-0.72
2023-02-05T00:11:21.019Z,-0.73
2023-02-05T00:13:47.906Z,-0.70
2023-02-05T00:16:18.189Z,-0.67
2023-02-05T00:18:45.898Z,-0.68
2023-02-05T00:21:13.852Z,-0.70
2023-02-05T00:23:41.214Z,-0.72
2023-02-05T00:26:08.466Z,-0.76
2023-02-05T00:28:36.177Z,-0.76
2023-02-05T00:31:09.195Z,-0.78
2023-02-05T00:33:36.160Z,-0.82
2023-02-05T00:36:04.411Z,-0.82
2023-02-05T00:38:31.731Z,-0.85
2023-02-05T00:40:58.913Z,-0.84
2023-02-05T00:43:26.142Z,-0.85
2023-02-05T00:45:53.006Z,-0.88
2023-02-05T00:48:19.916Z,-0.85
2023-02-05T00:50:49.772Z,-0.90
2023-02-05T00:53:17.095Z,-0.96
2023-02-05T00:55:43.979Z,-0.98
2023-02-05T00:58:11.738Z,-1.00
2023-02-05T01:00:39.550Z,-1.07
2023-02-05T01:03:06.861Z,-1.05
2023-02-05T01:05:35.128Z,-1.08
2023-02-05T01:08:02.257Z,-1.10
2023-02-05T01:10:29.563Z,-1.10
2023-02-05T01:12:56.438Z,-1.13
2023-02-05T01:15:23.411Z,-1.13
2023-02-05T01:17:50.198Z,-1.14
2023-02-05T01:20:17.309Z,-1.14
2023-02-05T01:22:44.205Z,-1.16
2023-02-05T01:25:11.174Z,-1.19
2023-02-05T01:27:38.125Z,-1.23
2023-02-05T01:30:06.504Z,-1.25
2023-02-05T01:32:33.428Z,-1.25
2023-02-05T01:35:00.354Z,-1.32
2023-02-05T01:37:27.301Z,-1.28
2023-02-05T01:39:54.138Z,-1.30
2023-02-05T01:42:26.529Z,-1.30
2023-02-05T01:45:32.639Z,-1.28
2023-02-05T01:48:02.544Z,-1.29
2023-02-05T01:51:01.791Z,-1.28
2023-02-05T01:53:33.011Z,-1.23
2023-02-05T01:56:14.904Z,-1.26
2023-02-05T01:59:03.521Z,-1.26
2023-02-05T02:01:32.248Z,-1.25
2023-02-05T02:04:01.480Z,-1.25
2023-02-05T02:06:28.349Z,-1.29
2023-02-05T02:08:55.521Z,-1.28
2023-02-05T02:11:24.840Z,-1.31
2023-02-05T02:13:54.897Z,-1.41
2023-02-05T02:16:23.009Z,-1.42
2023-02-05T02:18:50.291Z,-1.48
2023-02-05T02:21:45.596Z,-1.51
2023-02-05T02:24:44.666Z,-1.56
2023-02-05T02:27:49.804Z,-1.54
2023-02-05T02:30:41.002Z,-1.58
2023-02-05T02:33:26.892Z,-1.59
2023-02-05T02:36:38.542Z,-1.64
2023-02-05T02:39:22.090Z,-1.64
2023-02-05T02:41:54.004Z,-1.65
2023-02-05T02:44:49.052Z,-1.66
2023-02-05T02:47:22.861Z,-1.67
2023-02-05T02:49:55.480Z,-1.64
2023-02-05T02:52:25.459Z,-1.66
2023-02-05T02:54:57.543Z,-1.67
2023-02-05T02:57:28.737Z,-1.66
2023-02-05T02:59:59.799Z,-1.68
2023-02-05T03:02:30.724Z,-1.70
2023-02-05T03:05:01.868Z,-1.74
2023-02-05T03:07:39.713Z,-1.76
2023-02-05T03:27:40.808Z,-2.06
2023-02-05T03:30:09.603Z,-1.96
2023-02-05T03:32:44.552Z,-1.91
2023-02-05T03:35:40.119Z,-1.91
2023-02-05T03:38:19.581Z,-1.87
2023-02-05T03:41:01.237Z,-1.84
2023-02-05T03:43:51.051Z,-1.87
2023-02-05T03:46:42.693Z,-1.84
2023-02-05T03:49:52.632Z,-1.82
2023-02-05T03:52:27.362Z,-1.87
2023-02-05T03:55:04.112Z,-1.87
2023-02-05T03:57:48.959Z,-1.90
2023-02-05T04:00:17.704Z,-1.87
2023-02-05T04:02:47.238Z,-1.92
2023-02-05T04:05:22.915Z,-1.91
2023-02-05T04:07:52.531Z,-1.93
2023-02-05T04:10:22.710Z,-1.97
2023-02-05T04:12:50.744Z,-1.98
2023-02-05T04:15:18.472Z,-2.01
2023-02-05T04:17:49.240Z,-2.02
2023-02-05T04:20:16.230Z,-2.03
2023-02-05T04:22:43.117Z,-2.03
2023-02-05T04:25:10.154Z,-2.00
2023-02-05T04:27:37.887Z,-2.01
2023-02-05T04:30:06.938Z,-2.04
2023-02-05T04:32:37.341Z,-2.08
2023-02-05T04:35:05.120Z,-2.09
2023-02-05T04:37:32.006Z,-2.08
2023-02-05T04:39:59.943Z,-2.10
2023-02-05T04:42:26.869Z,-2.11
2023-02-05T04:44:54.568Z,-2.10
2023-02-05T04:47:21.545Z,-2.13
2023-02-05T04:49:48.425Z,-2.15
2023-02-05T04:52:15.307Z,-2.21
2023-02-05T04:54:42.406Z,-2.20
2023-02-05T04:57:09.319Z,-2.25
2023-02-05T04:59:36.213Z,-2.23
2023-02-05T05:02:03.273Z,-2.26
2023-02-05T05:04:30.424Z,-2.30
2023-02-05T05:06:57.341Z,-2.29
2023-02-05T05:09:25.317Z,-2.31
2023-02-05T05:11:53.070Z,-2.30
2023-02-05T05:14:20.225Z,-2.32
2023-02-05T05:16:49.102Z,-2.33
2023-02-05T05:19:16.380Z,-2.30
2023-02-05T05:21:43.239Z,-2.29
2023-02-05T05:24:10.081Z,-2.31
2023-02-05T05:26:38.106Z,-2.33
2023-02-05T05:29:06.376Z,-2.37
2023-02-05T05:31:33.305Z,-2.35
2023-02-05T05:34:00.179Z,-2.39
2023-02-05T05:36:27.085Z,-2.38
2023-02-05T05:38:54.022Z,-2.36
2023-02-05T05:41:42.442Z,-2.40
2023-02-05T05:44:10.212Z,-2.44
2023-02-05T05:46:37.037Z,-2.42
2023-02-05T05:49:04.152Z,-2.45
2023-02-05T05:51:32.688Z,-2.39
2023-02-05T05:53:59.643Z,-2.38
2023-02-05T05:56:26.540Z,-2.41
2023-02-05T05:58:53.398Z,-2.41
2023-02-05T06:01:22.237Z,-2.43
2023-02-05T06:03:50.167Z,-2.41
2023-02-05T06:06:17.117Z,-2.43
2023-02-05T06:08:43.998Z,-2.39
2023-02-05T06:11:11.182Z,-2.42
2023-02-05T06:13:38.199Z,-2.43
2023-02-05T06:16:05.661Z,-2.43
2023-02-05T06:18:32.782Z,-2.45
2023-02-05T06:20:59.943Z,-2.42
2023-02-05T06:23:26.840Z,-2.47
2023-02-05T06:25:53.824Z,-2.48
2023-02-05T06:28:20.752Z,-2.43
2023-02-05T06:30:47.731Z,-2.43
2023-02-05T06:33:14.713Z,-2.40
2023-02-05T06:35:42.382Z,-2.41
2023-02-05T06:38:09.335Z,-2.35
2023-02-05T06:40:36.195Z,-2.30
2023-02-05T06:43:04.157Z,-2.25
2023-02-05T06:45:30.997Z,-2.17
2023-02-05T06:47:58.386Z,-2.13
2023-02-05T06:50:25.687Z,-2.04
2023-02-05T06:52:52.456Z,-1.79
2023-02-05T06:55:19.377Z,-1.52
2023-02-05T06:57:46.195Z,-1.48
2023-02-05T07:00:14.064Z,-1.67
2023-02-05T07:02:41.036Z,-1.86
2023-02-05T07:05:08.618Z,-1.98
2023-02-05T07:07:35.608Z,-2.05
2023-02-05T07:10:02.510Z,-2.04
2023-02-05T07:12:29.435Z,-1.89
2023-02-05T07:14:56.268Z,-1.94
2023-02-05T07:17:23.328Z,-1.87
2023-02-05T07:19:50.251Z,-1.73
2023-02-05T07:22:17.074Z,-1.54
2023-02-05T07:24:43.978Z,-1.33
2023-02-05T07:27:10.934Z,-1.26
2023-02-05T07:29:37.792Z,-1.18
2023-02-05T07:32:05.285Z,-1.07
2023-02-05T07:34:32.325Z,-1.08
2023-02-05T07:36:59.195Z,-1.17
2023-02-05T07:39:28.159Z,-1.05
2023-02-05T07:41:55.194Z,-0.92
2023-02-05T07:44:30.627Z,-1.14
2023-02-05T07:46:57.522Z,-1.25
2023-02-05T07:49:24.445Z,-1.31
2023-02-05T07:51:51.309Z,-1.03
2023-02-05T07:54:18.332Z,-0.95
2023-02-05T07:56:45.303Z,-0.73
2023-02-05T07:59:12.361Z,-0.77
2023-02-05T08:01:39.315Z,-0.67
2023-02-05T08:04:06.309Z,-0.81
2023-02-05T08:06:34.169Z,-0.76
2023-02-05T08:09:01.084Z,-0.83
2023-02-05T08:11:27.904Z,-0.62
2023-02-05T08:13:54.879Z,-0.35
2023-02-05T08:16:21.929Z,0.23
2023-02-05T08:18:50.696Z,0.06
2023-02-05T08:21:19.220Z,-0.07
2023-02-05T08:23:46.085Z,0.28
2023-02-05T08:26:15.039Z,1.27
2023-02-05T08:28:43.731Z,1.51
2023-02-05T08:31:16.314Z,2.09
2023-02-05T08:33:43.559Z,2.53
2023-02-05T08:36:11.511Z,2.32
2023-02-05T08:38:38.427Z,2.13
2023-02-05T08:41:13.802Z,2.86
2023-02-05T08:43:45.909Z,2.08
2023-02-05T08:46:15.078Z,3.09
2023-02-05T08:48:42.074Z,2.76
2023-02-05T08:51:13.042Z,2.75
2023-02-05T08:53:40.394Z,3.55
2023-02-05T08:56:10.693Z,3.69
2023-02-05T08:58:39.202Z,4.39
2023-02-05T09:01:12.008Z,3.97
2023-02-05T09:03:39.087Z,4.60
2023-02-05T09:06:08.612Z,4.75
2023-02-05T09:08:36.342Z,4.79
2023-02-05T09:11:03.978Z,4.39
2023-02-05T09:13:31.367Z,4.42
2023-02-05T09:15:58.320Z,3.51
2023-02-05T09:18:25.297Z,3.53
2023-02-05T09:20:54.193Z,2.93
2023-02-05T09:23:21.494Z,3.62
2023-02-05T09:25:48.712Z,1.93
2023-02-05T09:28:16.164Z,1.50
2023-02-05T09:30:45.642Z,1.10
2023-02-05T09:33:13.902Z,1.16
2023-02-05T09:35:41.403Z,1.23
2023-02-05T09:38:08.429Z,1.27
2023-02-05T09:40:53.796Z,2.10
2023-02-05T09:44:02.283Z,1.99
2023-02-05T09:46:45.089Z,1.48
2023-02-05T09:49:21.689Z,1.36
2023-02-05T09:51:52.858Z,1.31
2023-02-05T09:54:33.816Z,2.45
2023-02-05T09:57:30.298Z,1.65
2023-02-05T09:59:58.738Z,2.03
2023-02-05T10:02:41.888Z,1.20
2023-02-05T10:05:21.979Z,2.09
2023-02-05T10:07:54.510Z,2.07
2023-02-05T10:10:57.716Z,2.30
2023-02-05T10:13:30.416Z,2.73
2023-02-05T10:16:06.120Z,1.86
2023-02-05T10:18:51.437Z,3.28
2023-02-05T10:21:30.132Z,2.12
2023-02-05T10:23:59.678Z,3.37
2023-02-05T10:26:36.962Z,1.55
2023-02-05T10:29:22.552Z,2.00
2023-02-05T10:31:56.569Z,1.86
2023-02-05T10:34:42.090Z,2.26
2023-02-05T10:37:19.170Z,2.78
2023-02-05T10:39:47.602Z,1.84
2023-02-05T10:42:23.381Z,3.41
2023-02-05T10:44:58.456Z,2.77
2023-02-05T10:47:39.208Z,4.97
2023-02-05T10:50:32.199Z,3.46
2023-02-05T10:52:59.115Z,3.37
2023-02-05T10:55:26.149Z,3.28
2023-02-05T10:57:53.099Z,2.36
2023-02-05T11:00:22.701Z,3.90
2023-02-05T11:02:53.125Z,2.57
2023-02-05T11:05:26.565Z,4.55
2023-02-05T11:07:54.543Z,3.06
2023-02-05T11:10:27.682Z,3.39
2023-02-05T11:13:28.215Z,3.55
2023-02-05T11:15:56.278Z,2.85
2023-02-05T11:18:26.915Z,5.26
2023-02-05T11:21:02.675Z,3.63
2023-02-05T11:23:32.281Z,5.10
2023-02-05T11:26:01.585Z,3.65
2023-02-05T11:28:37.057Z,4.01
2023-02-05T11:31:27.273Z,3.96
2023-02-05T11:34:09.560Z,3.75
2023-02-05T11:36:57.935Z,3.64
2023-02-05T11:39:27.410Z,2.72
2023-02-05T11:41:56.781Z,3.72
2023-02-05T11:44:30.185Z,2.42
2023-02-05T11:47:00.894Z,3.30
2023-02-05T11:49:38.438Z,2.82
2023-02-05T11:52:11.999Z,2.39
2023-02-05T11:54:43.706Z,1.85
2023-02-05T11:57:19.877Z,0.14
2023-02-05T11:59:57.225Z,1.00
2023-02-05T12:02:29.804Z,1.14
2023-02-05T12:05:16.881Z,1.24
2023-02-05T12:08:21.497Z,1.04
2023-02-05T12:10:57.941Z,2.02
2023-02-05T12:13:39.952Z,2.26
2023-02-05T12:16:42.840Z,0.49
2023-02-05T12:19:23.179Z,-0.16
2023-02-05T12:22:19.161Z,-0.59
2023-02-05T12:25:16.247Z,-0.31
2023-02-05T12:28:03.327Z,-0.52
2023-02-05T12:30:39.237Z,1.22
2023-02-05T12:33:21.002Z,0.54
2023-02-05T12:36:08.054Z,0.68
2023-02-05T12:39:12.803Z,-0.09
2023-02-05T12:41:59.247Z,0.33
2023-02-05T12:44:48.918Z,-0.16
2023-02-05T12:47:34.151Z,-0.02
2023-02-05T12:50:22.330Z,-0.34
2023-02-05T12:53:03.096Z,-0.38
2023-02-05T12:56:04.705Z,-0.24
2023-02-05T12:58:39.896Z,-0.39
2023-02-05T13:01:11.299Z,-0.14
2023-02-05T13:03:55.454Z,-0.73
2023-02-05T13:06:37.895Z,-0.37
2023-02-05T13:09:13.511Z,-1.01
2023-02-05T13:11:53.761Z,-0.76
2023-02-05T13:14:30.250Z,-1.08
2023-02-05T13:17:17.384Z,-0.93
2023-02-05T13:19:57.312Z,-1.01
2023-02-05T13:22:50.652Z,-0.98
2023-02-05T13:25:39.978Z,-1.01
2023-02-05T13:28:42.312Z,-1.32
2023-02-05T13:31:27.098Z,-1.25
2023-02-05T13:33:55.763Z,-1.44
2023-02-05T13:36:27.290Z,-1.06
2023-02-05T13:39:13.560Z,-1.45
2023-02-05T13:42:20.586Z,-1.29
2023-02-05T13:45:25.131Z,-1.53
2023-02-05T13:48:25.805Z,-1.32
2023-02-05T13:51:07.715Z,-1.48
2023-02-05T13:53:49.964Z,-1.46
2023-02-05T13:56:35.004Z,-1.54
2023-02-05T13:59:06.145Z,-1.55
2023-02-05T14:01:41.101Z,-1.65
2023-02-05T14:04:28.631Z,-1.66
2023-02-05T14:07:02.192Z,-1.52
2023-02-05T14:09:40.831Z,-1.83
2023-02-05T14:12:27.107Z,-1.68
2023-02-05T14:15:20.232Z,-2.01
2023-02-05T14:17:47.096Z,-1.86
2023-02-05T14:20:41.675Z,-2.10
2023-02-05T14:23:35.940Z,-2.05
2023-02-05T14:26:11.289Z,-2.16
2023-02-05T14:28:45.562Z,-2.21
2023-02-05T14:31:45.906Z,-2.24
2023-02-05T14:34:48.233Z,-2.37
2023-02-05T14:37:29.479Z,-2.29
2023-02-05T14:39:56.723Z,-2.45
2023-02-05T14:42:27.492Z,-2.31
2023-02-05T14:44:57.452Z,-2.50
2023-02-05T14:47:28.999Z,-2.40
2023-02-05T14:50:24.184Z,-2.49
2023-02-05T14:53:01.124Z,-2.55
2023-02-05T14:55:35.920Z,-2.56
2023-02-05T14:58:19.491Z,-2.70
2023-02-05T15:00:46.370Z,-2.57
2023-02-05T15:03:13.679Z,-2.74
2023-02-05T15:05:43.442Z,-2.55
2023-02-05T15:08:29.060Z,-2.73
2023-02-05T15:11:14.149Z,-2.69
2023-02-05T15:13:41.760Z,-2.72
2023-02-05T15:29:47.444Z,-3.04
2023-02-05T15:32:46.739Z,-2.98
2023-02-05T15:35:18.818Z,-2.88
2023-02-05T15:37:50.266Z,-2.88
2023-02-05T15:40:22.687Z,-2.96
2023-02-05T15:42:55.658Z,-2.84
2023-02-05T15:45:33.881Z,-3.02
2023-02-05T15:48:07.379Z,-2.86
2023-02-05T15:50:37.286Z,-3.04
2023-02-05T15:53:10.550Z,-3.01
2023-02-05T15:55:38.417Z,-3.00
2023-02-05T15:58:07.061Z,-3.05
2023-02-05T16:00:37.775Z,-2.84
2023-02-05T16:03:04.819Z,-3.06
2023-02-05T16:05:32.334Z,-2.97
2023-02-05T16:08:01.980Z,-3.11
2023-02-05T16:10:34.703Z,-3.19
2023-02-05T16:13:14.622Z,-3.10
2023-02-05T16:15:50.614Z,-3.23
2023-02-05T16:18:45.199Z,-3.16
2023-02-05T16:21:25.938Z,-3.31
2023-02-05T16:24:02.500Z,-3.20
2023-02-05T16:26:53.846Z,-3.23
2023-02-05T16:29:29.633Z,-3.14
2023-02-05T16:32:15.881Z,-3.27
2023-02-05T16:34:44.214Z,-3.36
2023-02-05T16:37:16.612Z,-3.33
2023-02-05T16:39:50.016Z,-3.46
2023-02-05T16:42:46.222Z,-3.37
2023-02-05T16:45:13.027Z,-3.47
2023-02-05T16:47:40.160Z,-3.49
2023-02-05T16:50:42.898Z,-3.56
2023-02-05T16:53:27.245Z,-3.45
2023-02-05T16:55:58.463Z,-3.53
2023-02-05T16:58:28.614Z,-3.74
2023-02-05T17:00:58.516Z,-3.67
2023-02-05T17:03:28.946Z,-3.79
2023-02-05T17:06:00.489Z,-3.76
2023-02-05T17:08:33.742Z,-3.78
2023-02-05T17:11:04.494Z,-3.79
2023-02-05T17:13:42.935Z,-3.72
2023-02-05T17:16:26.116Z,-3.87
2023-02-05T17:19:01.404Z,-3.83
2023-02-05T17:21:32.452Z,-3.95
2023-02-05T17:24:02.836Z,-3.91
2023-02-05T17:26:33.080Z,-3.93
2023-02-05T17:29:04.215Z,-4.01
2023-02-05T17:31:35.426Z,-3.91
2023-02-05T17:34:02.611Z,-4.06
2023-02-05T17:36:29.454Z,-3.97
2023-02-05T17:38:56.583Z,-4.04
2023-02-05T17:41:43.101Z,-4.06
2023-02-05T17:44:14.438Z,-4.01
2023-02-05T17:46:42.380Z,-4.09
2023-02-05T17:49:09.320Z,-4.02
2023-02-05T17:51:36.363Z,-4.12
2023-02-05T17:54:03.303Z,-4.05
2023-02-05T17:56:30.239Z,-4.13
2023-02-05T17:58:58.288Z,-4.16
2023-02-05T18:01:25.397Z,-3.99
2023-02-05T18:03:52.399Z,-4.14
2023-02-05T18:06:19.656Z,-4.14
2023-02-05T18:08:46.566Z,-4.11
2023-02-05T18:11:13.423Z,-4.17
2023-02-05T18:13:40.499Z,-4.09
2023-02-05T18:16:08.102Z,-4.18
2023-02-05T18:18:36.406Z,-4.17
2023-02-05T18:21:03.447Z,-4.18
2023-02-05T18:23:30.443Z,-4.20
2023-02-05T18:25:58.375Z,-4.11
2023-02-05T18:28:25.776Z,-4.26
2023-02-05T18:31:04.358Z,-4.22
2023-02-05T18:33:31.464Z,-4.29
2023-02-05T18:36:12.475Z,-4.32
2023-02-05T18:38:41.107Z,-4.24
2023-02-05T18:41:13.580Z,-4.25
2023-02-05T18:43:41.024Z,-4.25
2023-02-05T18:46:10.436Z,-4.25
2023-02-05T18:48:38.374Z,-4.26
2023-02-05T18:51:06.578Z,-4.26
2023-02-05T18:53:34.403Z,-4.34
2023-02-05T18:56:07.239Z,-4.25
2023-02-05T18:58:34.706Z,-4.28
2023-02-05T19:01:10.240Z,-4.26
2023-02-05T19:03:38.049Z,-4.24
2023-02-05T19:06:05.920Z,-4.31
2023-02-05T19:08:32.826Z,-4.24
2023-02-05T19:11:00.114Z,-4.30
2023-02-05T19:13:26.918Z,-4.27
2023-02-05T19:15:55.143Z,-4.25
2023-02-05T19:18:22.036Z,-4.36
2023-02-05T19:20:49.565Z,-4.20
2023-02-05T19:23:16.776Z,-4.28
2023-02-05T19:25:43.646Z,-4.26
2023-02-05T19:28:10.550Z,-4.23
2023-02-05T19:30:37.985Z,-4.30
2023-02-05T19:33:05.406Z,-4.20
2023-02-05T19:35:32.308Z,-4.32
2023-02-05T19:37:59.314Z,-4.25
2023-02-05T19:40:26.222Z,-4.23
2023-02-05T19:42:54.010Z,-4.32
2023-02-05T19:45:22.017Z,-4.18
2023-02-05T19:47:48.891Z,-4.28
2023-02-05T19:50:16.055Z,-4.26
2023-02-05T19:52:44.025Z,-4.12
2023-02-05T19:55:10.835Z,-4.30
2023-02-05T19:57:37.707Z,-4.24
2023-02-05T20:00:04.973Z,-4.27
2023-02-05T20:02:38.971Z,-4.23
2023-02-05T20:05:06.298Z,-4.18
2023-02-05T20:07:34.021Z,-4.31
2023-02-05T20:10:00.904Z,-4.20
2023-02-05T20:12:27.751Z,-4.24
2023-02-05T20:14:54.595Z,-4.30
2023-02-05T20:17:21.418Z,-4.11
2023-02-05T20:19:48.309Z,-4.28
2023-02-05T20:22:15.284Z,-4.22
2023-02-05T20:24:42.130Z,-4.10
2023-02-05T20:27:08.933Z,-4.27
2023-02-05T20:29:54.362Z,-4.06
2023-02-05T20:32:21.183Z,-4.18
2023-02-05T20:34:50.243Z,-4.19
2023-02-05T20:37:19.873Z,-4.08
2023-02-05T20:39:48.263Z,-4.21
2023-02-05T20:42:16.268Z,-4.13
2023-02-05T20:44:43.903Z,-4.20
2023-02-05T20:47:13.491Z,-4.17
2023-02-05T20:49:41.813Z,-4.20
2023-02-05T20:52:10.126Z,-4.25
2023-02-05T20:54:37.408Z,-4.09
2023-02-05T20:57:04.420Z,-4.14
2023-02-05T20:59:33.155Z,-4.13
2023-02-05T21:02:00.808Z,-3.94
2023-02-05T21:04:27.753Z,-4.09
2023-02-05T21:06:54.752Z,-4.02
2023-02-05T21:09:22.167Z,-4.08
2023-02-05T21:11:50.163Z,-4.10
2023-02-05T21:14:17.260Z,-3.88
2023-02-05T21:16:44.370Z,-4.03
2023-02-05T21:19:12.383Z,-4.00
2023-02-05T21:21:40.429Z,-3.94
2023-02-05T21:24:11.358Z,-3.98
2023-02-05T21:26:43.451Z,-3.88
2023-02-05T21:29:13.695Z,-4.03
2023-02-05T21:31:53.185Z,-4.02
2023-02-05T21:34:23.060Z,-3.91
2023-02-05T21:36:50.681Z,-4.00
2023-02-05T21:39:20.439Z,-4.00
2023-02-05T21:41:48.622Z,-3.95
2023-02-05T21:44:15.580Z,-3.90
2023-02-05T21:46:42.735Z,-4.02
2023-02-05T21:49:11.448Z,-3.96
2023-02-05T21:51:38.424Z,-3.83
2023-02-05T21:54:06.398Z,-3.98
2023-02-05T21:56:36.815Z,-3.99
2023-02-05T21:59:04.032Z,-3.96
2023-02-05T22:01:33.555Z,-3.86
2023-02-05T22:04:13.410Z,-3.99
2023-02-05T22:06:40.866Z,-4.00
2023-02-05T22:09:09.460Z,-3.91
2023-02-05T22:11:39.317Z,-3.92
2023-02-05T22:14:06.671Z,-4.00
2023-02-05T22:16:35.010Z,-3.93
2023-02-05T22:19:02.754Z,-3.87
2023-02-05T22:21:38.860Z,-4.00
2023-02-05T22:24:07.805Z,-3.95
2023-02-05T22:26:37.319Z,-3.84
2023-02-05T22:29:06.490Z,-3.91
2023-02-05T22:31:33.873Z,-3.93
2023-02-05T22:34:00.858Z,-3.79
2023-02-05T22:36:30.667Z,-3.82
2023-02-05T22:38:58.194Z,-3.85
2023-02-05T22:41:33.862Z,-3.75
2023-02-05T22:44:02.216Z,-3.73
2023-02-05T22:46:31.638Z,-3.78
2023-02-05T22:49:00.459Z,-3.75
2023-02-05T22:51:36.656Z,-3.67
2023-02-05T22:54:04.446Z,-3.78
2023-02-05T22:56:31.486Z,-3.72
2023-02-05T22:59:01.358Z,-3.66
2023-02-05T23:01:31.907Z,-3.74
2023-02-05T23:04:00.838Z,-3.72
2023-02-05T23:06:30.523Z,-3.59
2023-02-05T23:09:03.866Z,-3.69
2023-02-05T23:11:32.348Z,-3.72
2023-02-05T23:14:00.569Z,-3.58
2023-02-05T23:16:30.260Z,-3.60
2023-02-05T23:19:00.344Z,-3.64
2023-02-05T23:21:29.736Z,-3.60
2023-02-05T23:23:57.154Z,-3.52
2023-02-05T23:26:26.729Z,-3.62
2023-02-05T23:28:55.289Z,-3.54
2023-02-05T23:31:23.740Z,-3.41
2023-02-05T23:33:51.848Z,-3.58
2023-02-05T23:36:19.851Z,-3.53
2023-02-05T23:38:47.845Z,-3.29
2023-02-05T23:41:14.692Z,-3.43
2023-02-05T23:43:41.657Z,-3.43
2023-02-05T23:46:08.689Z,-3.22
2023-02-05T23:48:35.939Z,-3.31
2023-02-05T23:51:02.807Z,-3.45
2023-02-05T23:53:29.757Z,-3.36
2023-02-05T23:55:56.656Z,-3.34
2023-02-05T23:58:25.989Z,-3.43
